Time;durP1;ratioP1;P1;durP2;ratioP2;P2;SDS_P1;SDS_P2;PMS_P1;PMS_P2;Temp;Humidity;BMP_temperature;BMP_pressure;BME280_temperature;BME280_humidity;BME280_pressure;Samples;Min_cycle;Max_cycle;Signal;HPM_P1;HPM_P2
2023/07/06 00:02:09;;;;;;;2.87;2.13;;;;;;;19.15;50.10;99606.75;4929886;29;20218;-76
2023/07/06 00:04:38;;;;;;;2.80;2.20;;;;;;;19.12;50.42;99608.84;4933735;29;20237;-76
2023/07/06 00:07:04;;;;;;;3.90;2.97;;;;;;;19.10;50.20;99603.69;4927031;29;20480;-76
2023/07/06 00:09:29;;;;;;;2.60;2.40;;;;;;;19.11;50.47;99608.03;4929360;29;20480;-76
2023/07/06 00:11:55;;;;;;;4.07;1.80;;;;;;;19.11;50.42;99597.38;4929647;29;20894;-76
2023/07/06 00:14:24;;;;;;;4.53;2.63;;;;;;;19.10;50.84;99603.69;4933249;29;20247;-76
2023/07/06 00:17:07;;;;;;;2.67;2.10;;;;;;;19.10;50.83;99603.69;4930875;29;21505;-76
2023/07/06 00:19:33;;;;;;;4.53;2.57;;;;;;;19.10;50.67;99603.69;4931547;29;20505;-77
2023/07/06 00:21:59;;;;;;;2.73;1.80;;;;;;;19.09;51.04;99607.34;4931263;29;20488;-76
2023/07/06 00:24:26;;;;;;;3.07;1.80;;;;;;;18.98;51.46;99612.88;4932103;29;20488;-76
2023/07/06 00:26:51;;;;;;;4.30;2.37;;;;;;;18.82;52.04;99615.38;4935383;29;20492;-77
2023/07/06 00:29:17;;;;;;;3.13;2.80;;;;;;;18.65;52.38;99612.50;4934233;29;20988;-76
2023/07/06 00:32:03;;;;;;;2.90;2.40;;;;;;;18.51;52.89;99611.19;4919760;29;20328;-76
2023/07/06 00:34:33;;;;;;;3.43;2.50;;;;;;;18.39;53.45;99615.06;4929593;29;20503;-76
2023/07/06 00:36:59;;;;;;;3.13;2.13;;;;;;;18.31;53.43;99602.50;4921936;29;20481;-76
2023/07/06 00:39:25;;;;;;;3.20;2.60;;;;;;;18.23;53.58;99610.38;4925562;29;20489;-76
2023/07/06 00:41:52;;;;;;;4.70;2.50;;;;;;;18.16;54.16;99613.75;4924996;29;22611;-76
2023/07/06 00:44:59;;;;;;;3.17;2.73;;;;;;;18.11;54.23;99604.38;4920699;29;20909;-76
2023/07/06 00:47:31;;;;;;;3.13;1.97;;;;;;;18.11;54.48;99603.53;4931844;29;20572;-77
2023/07/06 00:50:07;;;;;;;3.57;2.40;;;;;;;18.10;54.28;99601.88;4925326;29;20510;-76
2023/07/06 00:52:33;;;;;;;3.07;2.00;;;;;;;18.08;54.43;99601.19;4923234;29;20977;-76
2023/07/06 00:55:01;;;;;;;3.90;2.90;;;;;;;18.05;54.86;99604.13;4925051;29;20484;-76
2023/07/06 00:57:28;;;;;;;2.47;2.03;;;;;;;17.96;54.85;99600.53;4930108;29;20892;-76
2023/07/06 00:59:56;;;;;;;4.53;2.40;;;;;;;17.85;55.46;99601.56;4932229;29;20839;-76
2023/07/06 01:02:21;;;;;;;5.20;2.93;;;;;;;17.70;55.90;99603.78;4930072;29;20472;-76
2023/07/06 01:04:48;;;;;;;5.33;2.80;;;;;;;17.57;56.24;99607.72;4933759;29;20548;-76
2023/07/06 01:07:19;;;;;;;3.43;3.00;;;;;;;17.44;56.56;99605.38;4928466;29;21223;-76
2023/07/06 01:09:46;;;;;;;3.30;3.00;;;;;;;17.33;56.79;99595.72;4927657;29;20469;-77
2023/07/06 01:12:12;;;;;;;3.73;2.73;;;;;;;17.26;56.94;99605.25;4910297;29;20998;-76
2023/07/06 01:14:40;;;;;;;2.60;2.40;;;;;;;17.18;56.98;99603.28;4930323;29;20488;-76
2023/07/06 01:17:11;;;;;;;4.83;2.50;;;;;;;17.11;57.46;99607.47;4930356;29;20485;-76
2023/07/06 01:20:14;;;;;;;3.60;2.33;;;;;;;17.06;57.70;99599.09;4931899;29;20496;-77
2023/07/06 01:23:11;;;;;;;5.63;2.63;;;;;;;17.07;57.48;99594.66;4924913;29;20472;-76
2023/07/06 01:25:51;;;;;;;3.57;2.87;;;;;;;17.12;57.55;99600.34;4914038;29;20561;-76
2023/07/06 01:28:55;;;;;;;2.93;2.50;;;;;;;17.19;57.41;99604.13;4905070;29;20475;-76
2023/07/06 01:32:02;;;;;;;3.07;2.07;;;;;;;17.23;57.14;99610.84;4932064;29;20482;-76
2023/07/06 01:34:47;;;;;;;4.87;2.63;;;;;;;17.27;57.26;99614.06;4941137;23;21053;-75
2023/07/06 01:37:22;;;;;;;5.40;2.73;;;;;;;17.30;57.11;99616.41;4911504;29;20480;-75
2023/07/06 01:39:48;;;;;;;4.10;2.60;;;;;;;17.30;57.01;99611.94;4901108;29;20538;-75
2023/07/06 01:42:25;;;;;;;4.20;2.80;;;;;;;17.32;56.90;99610.00;4927114;29;20473;-75
2023/07/06 01:44:52;;;;;;;5.63;2.90;;;;;;;17.36;56.94;99603.44;4923879;29;20562;-75
2023/07/06 01:47:19;;;;;;;3.30;2.77;;;;;;;17.39;56.63;99605.81;4924092;28;20544;-75
2023/07/06 01:49:46;;;;;;;4.70;4.00;;;;;;;17.40;56.62;99602.16;4928993;29;20465;-75
2023/07/06 01:52:14;;;;;;;3.60;3.00;;;;;;;17.39;56.76;99600.50;4926328;29;20490;-75
2023/07/06 01:54:49;;;;;;;3.40;3.10;;;;;;;17.35;56.58;99598.25;4914785;29;21224;-75
2023/07/06 01:57:36;;;;;;;5.50;2.83;;;;;;;17.25;56.83;99601.78;4924008;29;20498;-75
2023/07/06 02:00:09;;;;;;;7.93;2.90;;;;;;;17.22;56.79;99603.84;4925069;29;20583;-76
2023/07/06 02:02:51;;;;;;;3.97;2.73;;;;;;;17.22;56.81;99598.53;4927969;29;20473;-75
2023/07/06 02:05:19;;;;;;;7.72;3.40;;;;;;;17.22;56.84;99601.19;4926793;29;20489;-75
2023/07/06 02:07:44;;;;;;;4.27;3.17;;;;;;;17.22;56.78;99604.69;4929489;29;20323;-75
2023/07/06 02:10:18;;;;;;;3.50;3.17;;;;;;;17.17;57.07;99608.72;4907131;29;20454;-75
2023/07/06 02:12:47;;;;;;;2.60;1.70;;;;;;;17.13;57.09;99604.69;4901414;29;20243;-75
2023/07/06 02:15:16;;;;;;;3.47;2.70;;;;;;;17.09;57.17;99606.78;4922708;29;20858;-75
2023/07/06 02:17:42;;;;;;;3.40;2.47;;;;;;;17.02;57.26;99609.16;4924978;29;20462;-75
2023/07/06 02:23:55;;;;;;;3.67;2.77;;;;;;;16.97;57.47;99606.06;4919412;29;20490;-75
2023/07/06 02:26:20;;;;;;;3.73;2.70;;;;;;;16.99;57.30;99606.78;4923406;29;20463;-75
2023/07/06 02:28:46;;;;;;;7.47;2.90;;;;;;;16.99;57.43;99608.59;4927010;29;20761;-75
2023/07/06 02:31:11;;;;;;;3.03;2.13;;;;;;;16.96;57.39;99598.28;4924334;29;20194;-75
2023/07/06 02:33:37;;;;;;;4.30;2.80;;;;;;;16.91;57.47;99590.72;4908344;29;20999;-75
2023/07/06 02:36:03;;;;;;;3.57;2.70;;;;;;;16.88;57.56;99592.81;4924723;28;20234;-75
2023/07/06 02:38:29;;;;;;;3.70;2.60;;;;;;;16.83;57.52;99590.56;4923992;29;20203;-75
2023/07/06 02:40:54;;;;;;;3.07;2.50;;;;;;;16.77;57.83;99591.97;4923945;29;20219;-75
2023/07/06 02:43:20;;;;;;;3.07;2.60;;;;;;;16.73;57.69;99587.03;4925556;29;20440;-75
2023/07/06 02:45:47;;;;;;;3.87;2.90;;;;;;;16.66;57.66;99586.75;4921949;29;20611;-75
2023/07/06 02:48:13;;;;;;;2.50;2.30;;;;;;;16.59;57.90;99580.31;4915439;29;20216;-76
2023/07/06 02:50:39;;;;;;;3.20;2.83;;;;;;;16.55;57.96;99581.53;4917631;29;21066;-75
2023/07/06 02:53:04;;;;;;;4.37;2.70;;;;;;;16.55;57.96;99584.19;4921638;29;20235;-76
2023/07/06 02:55:32;;;;;;;15.13;3.77;;;;;;;16.58;57.75;99579.47;4912312;29;20222;-76
2023/07/06 02:57:58;;;;;;;3.70;2.73;;;;;;;16.63;57.62;99579.03;4903233;29;20229;-76
2023/07/06 03:00:24;;;;;;;4.87;3.00;;;;;;;16.66;57.34;99584.09;4923911;29;20995;-76
2023/07/06 03:02:50;;;;;;;3.53;2.90;;;;;;;16.65;57.53;99584.22;4926259;29;20462;-75
2023/07/06 03:05:22;;;;;;;2.90;2.70;;;;;;;16.64;57.48;99585.22;4912435;29;20468;-76
2023/07/06 03:07:51;;;;;;;4.00;2.37;;;;;;;16.63;57.25;99580.88;4920670;29;20485;-75
2023/07/06 03:10:19;;;;;;;3.27;2.50;;;;;;;16.65;57.34;99586.88;4925814;29;20468;-76
2023/07/06 03:12:46;;;;;;;2.80;2.17;;;;;;;16.58;57.65;99587.44;4905173;29;20459;-76
2023/07/06 03:15:15;;;;;;;3.77;2.70;;;;;;;16.44;57.84;99587.81;4905952;29;21022;-75
2023/07/06 03:17:42;;;;;;;2.90;2.20;;;;;;;16.25;58.28;99588.56;4920161;29;21062;-74
2023/07/06 03:20:15;;;;;;;4.37;2.53;;;;;;;16.04;58.77;99588.66;4904941;29;20507;-76
2023/07/06 03:22:46;;;;;;;3.80;2.10;;;;;;;15.86;59.16;99592.91;4923045;29;20924;-75
2023/07/06 03:25:19;;;;;;;4.30;3.70;;;;;;;15.70;59.79;99591.56;4924389;29;20565;-75
2023/07/06 03:27:48;;;;;;;3.30;2.40;;;;;;;15.61;59.91;99591.47;4923922;29;20557;-76
2023/07/06 03:30:18;;;;;;;5.47;2.45;;;;;;;15.54;60.23;99585.00;4923569;29;20766;-75
2023/07/06 03:32:43;;;;;;;5.28;3.03;;;;;;;15.51;60.41;99582.63;4914596;29;20303;-76
2023/07/06 03:35:10;;;;;;;3.13;2.27;;;;;;;15.52;60.47;99590.44;4922463;29;21017;-76
2023/07/06 03:37:37;;;;;;;5.00;2.85;;;;;;;15.54;60.25;99591.16;4925002;29;20218;-76
2023/07/06 03:40:10;;;;;;;4.55;2.50;;;;;;;15.52;60.49;99595.72;4921400;29;20765;-76
2023/07/06 03:42:45;;;;;;;4.40;2.95;;;;;;;15.54;60.52;99593.78;4924305;29;20220;-77
2023/07/06 03:45:12;;;;;;;5.28;2.80;;;;;;;15.58;60.44;99600.53;4923275;29;20598;-76
2023/07/06 03:47:39;;;;;;;3.80;2.53;;;;;;;15.61;60.49;99597.59;4909778;29;20529;-76
2023/07/06 03:50:09;;;;;;;3.55;2.67;;;;;;;15.62;60.51;99599.28;4924452;29;20289;-76
2023/07/06 03:52:37;;;;;;;4.43;3.28;;;;;;;15.65;60.36;99593.72;4922970;29;20222;-76
2023/07/06 03:55:04;;;;;;;4.13;2.67;;;;;;;15.66;60.43;99597.19;4922949;29;20270;-76
2023/07/06 03:57:30;;;;;;;8.68;2.55;;;;;;;15.69;60.29;99591.69;4920675;29;20219;-76
2023/07/06 03:59:56;;;;;;;5.95;2.78;;;;;;;15.72;60.12;99604.66;4927226;29;20429;-76
2023/07/06 04:02:22;;;;;;;4.17;2.93;;;;;;;15.73;60.29;99603.69;4922873;29;20242;-76
2023/07/06 04:04:48;;;;;;;4.67;2.83;;;;;;;15.68;60.55;99606.72;4929612;29;20313;-76
2023/07/06 04:07:14;;;;;;;3.37;2.63;;;;;;;15.59;60.93;99610.13;4935057;29;20480;-76
2023/07/06 04:09:40;;;;;;;2.80;2.40;;;;;;;15.48;61.19;99615.50;4932818;28;20492;-77
2023/07/06 04:12:07;;;;;;;3.80;3.07;;;;;;;15.41;61.43;99611.66;4928150;29;20237;-78
2023/07/06 04:14:34;;;;;;;3.78;2.65;;;;;;;15.36;61.70;99616.50;4930334;29;20230;-76
2023/07/06 04:16:59;;;;;;;3.38;2.80;;;;;;;15.35;61.48;99615.66;4931405;29;20321;-77
2023/07/06 04:19:25;;;;;;;3.53;2.53;;;;;;;15.36;61.52;99621.81;4930748;29;20852;-75
2023/07/06 04:21:52;;;;;;;4.47;2.73;;;;;;;15.42;61.49;99621.31;4908578;29;20229;-75
2023/07/06 04:24:18;;;;;;;4.15;3.20;;;;;;;15.48;61.34;99620.78;4922087;29;20780;-77
2023/07/06 04:26:45;;;;;;;3.00;2.50;;;;;;;15.58;61.13;99626.13;4922970;29;20211;-76
2023/07/06 04:29:11;;;;;;;4.15;2.45;;;;;;;15.65;60.95;99622.84;4924584;29;20213;-77
2023/07/06 04:31:37;;;;;;;3.60;2.72;;;;;;;15.72;60.83;99625.84;4919868;29;20226;-76
2023/07/06 04:34:03;;;;;;;6.45;2.78;;;;;;;15.79;60.65;99624.34;4924623;29;20231;-76
2023/07/06 04:36:32;;;;;;;5.00;3.10;;;;;;;15.89;60.53;99613.81;4924861;29;20669;-76
2023/07/06 04:38:59;;;;;;;2.92;2.25;;;;;;;16.00;60.09;99623.50;4925320;29;20989;-77
2023/07/06 04:41:27;;;;;;;4.38;3.05;;;;;;;16.10;60.09;99621.75;4928851;29;20860;-78
2023/07/06 04:43:53;;;;;;;3.65;3.30;;;;;;;16.21;59.75;99613.69;4920868;29;20226;-76
2023/07/06 04:46:22;;;;;;;10.07;2.80;;;;;;;16.34;59.48;99618.75;4926076;29;20227;-77
2023/07/06 04:48:48;;;;;;;4.45;3.20;;;;;;;16.47;59.28;99616.72;4924488;29;21039;-76
2023/07/06 04:51:13;;;;;;;4.20;2.97;;;;;;;16.62;59.08;99622.47;4930156;29;20206;-76
2023/07/06 04:53:39;;;;;;;6.60;2.60;;;;;;;16.84;58.45;99623.25;4928954;29;20491;-77
2023/07/06 04:56:06;;;;;;;3.42;2.70;;;;;;;17.24;57.73;99617.81;4925427;29;20246;-77
2023/07/06 04:58:31;;;;;;;4.75;3.05;;;;;;;17.73;56.45;99620.44;4929688;29;20231;-78
2023/07/06 05:01:02;;;;;;;3.10;2.20;;;;;;;18.14;54.67;99622.69;4928159;29;20297;-78
2023/07/06 05:03:30;;;;;;;4.95;3.70;;;;;;;18.46;53.75;99616.13;4928879;29;20222;-75
2023/07/06 05:06:01;;;;;;;4.37;2.87;;;;;;;18.55;53.25;99611.72;4926815;29;20223;-74
2023/07/06 05:08:27;;;;;;;6.10;3.13;;;;;;;18.53;53.46;99619.03;4929983;29;20870;-74
2023/07/06 05:10:53;;;;;;;3.33;2.80;;;;;;;18.45;53.33;99622.44;4927975;29;20647;-75
2023/07/06 05:13:22;;;;;;;4.27;2.80;;;;;;;18.33;53.38;99624.47;4915202;29;20488;-77
2023/07/06 05:15:51;;;;;;;4.53;2.80;;;;;;;18.25;53.83;99621.66;4929361;29;21027;-76
2023/07/06 05:18:21;;;;;;;5.13;3.03;;;;;;;18.22;53.71;99618.47;4929257;29;20577;-77
2023/07/06 05:20:51;;;;;;;3.70;2.53;;;;;;;18.19;53.56;99613.47;4928744;28;20499;-77
2023/07/06 05:23:18;;;;;;;6.20;2.80;;;;;;;18.12;54.07;99618.53;4928161;29;20842;-74
2023/07/06 05:25:43;;;;;;;3.27;2.53;;;;;;;18.01;54.12;99621.34;4921726;29;20851;-73
2023/07/06 05:28:11;;;;;;;6.07;2.80;;;;;;;17.91;54.31;99627.53;4924553;29;20972;-74
2023/07/06 05:30:42;;;;;;;3.30;2.83;;;;;;;17.97;54.14;99636.75;4929751;29;20211;-76
2023/07/06 05:33:08;;;;;;;4.80;2.37;;;;;;;18.08;53.74;99628.59;4932556;29;20601;-77
2023/07/06 05:35:33;;;;;;;4.97;2.70;;;;;;;18.21;53.45;99625.63;4924480;28;20666;-78
2023/07/06 05:38:00;;;;;;;2.90;2.20;;;;;;;18.38;52.99;99623.16;4927106;29;20220;-77
2023/07/06 05:40:26;;;;;;;4.50;2.73;;;;;;;18.42;52.72;99622.75;4927163;29;20232;-76
2023/07/06 05:42:54;;;;;;;4.10;2.80;;;;;;;18.56;52.71;99634.69;4927428;29;20494;-77
2023/07/06 05:45:19;;;;;;;4.13;3.30;;;;;;;18.77;52.22;99634.47;4926831;29;20476;-77
2023/07/06 05:47:45;;;;;;;3.60;2.40;;;;;;;19.07;51.56;99630.63;4932250;29;21081;-76
2023/07/06 05:50:10;;;;;;;7.17;3.30;;;;;;;19.32;50.69;99631.69;4931412;29;20227;-77
2023/07/06 05:52:36;;;;;;;4.20;2.60;;;;;;;19.63;50.01;99632.13;4934511;29;20223;-78
2023/07/06 05:55:01;;;;;;;3.07;2.77;;;;;;;20.06;49.36;99637.56;4931283;29;20240;-76
2023/07/06 05:57:27;;;;;;;3.27;2.73;;;;;;;20.41;48.30;99631.25;4935583;29;20217;-77
2023/07/06 05:59:53;;;;;;;4.63;3.53;;;;;;;20.60;47.87;99630.16;4935477;29;20226;-77
2023/07/06 06:02:20;;;;;;;5.13;2.70;;;;;;;20.68;47.61;99637.38;4930751;29;20209;-73
2023/07/06 06:04:47;;;;;;;5.63;2.93;;;;;;;20.75;47.32;99638.41;4928144;29;20488;-75
2023/07/06 06:07:13;;;;;;;4.17;2.90;;;;;;;20.88;47.13;99641.44;4926986;29;21399;-77
2023/07/06 06:09:39;;;;;;;5.60;2.63;;;;;;;21.06;46.65;99641.31;4926696;29;20485;-77
2023/07/06 06:12:05;;;;;;;3.37;2.60;;;;;;;21.46;46.20;99646.91;4930271;29;20241;-76
2023/07/06 06:14:31;;;;;;;4.07;2.50;;;;;;;21.88;45.37;99639.50;4930847;29;20222;-76
2023/07/06 06:16:57;;;;;;;4.40;2.87;;;;;;;22.29;44.45;99639.44;4927228;29;20523;-76
2023/07/06 06:19:22;;;;;;;3.83;2.80;;;;;;;22.81;43.76;99637.19;4930012;29;20548;-76
2023/07/06 06:21:49;;;;;;;4.83;2.87;;;;;;;23.35;42.68;99642.56;4910881;29;20465;-75
2023/07/06 06:24:15;;;;;;;5.10;2.73;;;;;;;23.63;41.67;99641.00;4928323;29;20554;-75
2023/07/06 06:26:42;;;;;;;4.63;2.97;;;;;;;23.55;41.80;99643.75;4931494;29;20650;-77
2023/07/06 06:29:09;;;;;;;5.30;1.93;;;;;;;23.30;42.21;99639.59;4929576;29;20483;-77
2023/07/06 06:31:36;;;;;;;5.57;4.90;;;;;;;23.03;42.32;99635.59;4925653;29;21172;-79
2023/07/06 06:34:02;;;;;;;3.57;3.00;;;;;;;22.87;42.57;99637.34;4929443;28;20542;-79
2023/07/06 06:36:27;;;;;;;4.28;3.10;;;;;;;22.69;42.01;99642.97;4909304;29;20847;-79
2023/07/06 06:38:53;;;;;;;3.37;2.93;;;;;;;22.63;42.35;99646.34;4922045;29;20220;-79
2023/07/06 06:41:21;;;;;;;4.20;2.87;;;;;;;22.66;42.33;99640.63;4927368;29;20222;-80
2023/07/06 06:43:47;;;;;;;3.90;2.50;;;;;;;22.70;42.06;99647.28;4928662;29;20475;-79
2023/07/06 06:46:13;;;;;;;4.83;2.90;;;;;;;22.71;42.28;99640.09;4912185;29;20478;-79
2023/07/06 06:48:40;;;;;;;4.07;2.03;;;;;;;22.68;42.30;99645.78;4929394;29;20790;-80
2023/07/06 06:51:10;;;;;;;4.40;3.30;;;;;;;22.64;42.12;99639.97;4928720;29;20491;-80
2023/07/06 06:53:39;;;;;;;4.33;2.50;;;;;;;22.78;41.92;99640.25;4928099;29;20452;-80
2023/07/06 06:56:09;;;;;;;3.03;2.03;;;;;;;23.13;41.15;99639.72;4926116;29;20495;-80
2023/07/06 06:58:35;;;;;;;4.27;3.60;;;;;;;23.56;40.42;99634.69;4927857;29;21025;-79
2023/07/06 07:01:03;;;;;;;3.60;2.17;;;;;;;24.00;39.71;99631.28;4927145;29;20495;-79
2023/07/06 07:03:29;;;;;;;8.50;3.43;;;;;;;24.41;39.01;99630.81;4934100;29;20440;-80
2023/07/06 07:06:00;;;;;;;4.00;3.00;;;;;;;24.83;38.60;99625.78;4926898;29;20456;-80
2023/07/06 07:08:26;;;;;;;2.63;1.80;;;;;;;25.22;37.72;99628.09;4926625;29;20205;-80
2023/07/06 07:10:53;;;;;;;3.57;2.40;;;;;;;25.57;37.17;99618.25;4913086;29;21099;-82
2023/07/06 07:13:18;;;;;;;2.57;2.23;;;;;;;25.97;36.54;99615.03;4926732;29;20228;-80
2023/07/06 07:15:43;;;;;;;2.67;2.40;;;;;;;26.41;35.93;99611.97;4928150;29;20944;-80
2023/07/06 07:18:09;;;;;;;5.63;2.63;;;;;;;26.92;34.52;99614.25;4922940;29;20301;-80
2023/07/06 07:20:34;;;;;;;3.30;2.27;;;;;;;27.35;33.55;99611.25;4927858;29;20610;-80
2023/07/06 07:23:01;;;;;;;4.03;2.93;;;;;;;27.68;32.98;99609.56;4923356;29;20215;-81
2023/07/06 07:25:27;;;;;;;3.10;2.20;;;;;;;27.94;32.28;99616.84;4925740;29;20323;-81
2023/07/06 07:27:54;;;;;;;3.87;2.23;;;;;;;28.19;31.85;99606.16;4926118;29;20456;-81
2023/07/06 07:30:20;;;;;;;3.50;3.00;;;;;;;28.24;31.13;99609.06;4928103;29;20515;-80
2023/07/06 07:32:47;;;;;;;6.00;2.47;;;;;;;28.20;31.00;99608.66;4932080;29;20459;-80
2023/07/06 07:35:13;;;;;;;3.60;2.30;;;;;;;28.35;30.62;99607.56;4947172;23;20225;-76
2023/07/06 07:37:38;;;;;;;2.60;2.33;;;;;;;28.37;30.67;99611.72;4915815;29;20455;-76
2023/07/06 07:40:05;;;;;;;3.53;2.30;;;;;;;28.62;30.47;99613.72;4923371;29;20703;-76
2023/07/06 07:42:30;;;;;;;3.70;2.67;;;;;;;28.99;29.97;99605.84;4931714;29;20209;-76
2023/07/06 07:44:57;;;;;;;4.30;2.00;;;;;;;29.30;29.25;99600.47;4930959;28;20984;-76
2023/07/06 07:47:24;;;;;;;3.37;2.57;;;;;;;29.47;28.86;99597.22;4915999;29;20212;-77
2023/07/06 07:49:49;;;;;;;5.33;2.20;;;;;;;29.58;28.40;99599.19;4916802;29;20480;-77
2023/07/06 07:52:15;;;;;;;2.80;2.23;;;;;;;29.75;28.28;99594.88;4915483;29;20527;-76
2023/07/06 07:54:42;;;;;;;2.60;2.13;;;;;;;29.88;28.11;99593.94;4918765;29;20247;-77
2023/07/06 07:57:07;;;;;;;3.00;1.70;;;;;;;29.72;27.65;99584.50;4913880;29;20218;-76
2023/07/06 07:59:33;;;;;;;4.73;2.13;;;;;;;29.63;27.57;99593.94;4916908;29;20562;-76
2023/07/06 08:01:59;;;;;;;3.57;2.50;;;;;;;29.51;28.17;99596.53;4918842;29;20246;-76
2023/07/06 08:04:25;;;;;;;2.40;2.17;;;;;;;29.57;28.02;99600.25;4916980;29;20195;-76
2023/07/06 08:06:50;;;;;;;2.70;1.90;;;;;;;29.65;28.14;99604.56;4913186;29;20945;-76
2023/07/06 08:09:16;;;;;;;3.80;2.30;;;;;;;29.63;28.25;99598.53;4916751;29;20209;-76
2023/07/06 08:11:46;;;;;;;2.63;2.10;;;;;;;29.55;28.39;99605.03;4915877;29;20249;-77
2023/07/06 08:14:12;;;;;;;3.20;2.27;;;;;;;29.58;28.37;99601.88;4915260;29;20249;-76
2023/07/06 08:16:40;;;;;;;5.10;2.20;;;;;;;29.41;28.72;99600.78;4914064;29;20480;-76
2023/07/06 08:19:08;;;;;;;3.00;1.93;;;;;;;29.23;29.11;99605.09;4916785;29;20488;-76
2023/07/06 08:21:37;;;;;;;11.70;2.43;;;;;;;29.17;29.29;99597.03;4915371;29;20445;-76
2023/07/06 08:24:03;;;;;;;2.97;2.00;;;;;;;29.10;29.63;99599.75;4917014;29;20470;-76
2023/07/06 08:26:31;;;;;;;4.33;3.30;;;;;;;29.02;29.80;99600.00;4915948;29;20880;-77
2023/07/06 08:28:57;;;;;;;3.43;2.10;;;;;;;29.03;30.06;99598.94;4915622;29;20800;-76
2023/07/06 08:31:24;;;;;;;3.90;2.03;;;;;;;29.03;29.82;99598.94;4915281;29;21005;-76
2023/07/06 08:33:49;;;;;;;4.77;2.20;;;;;;;29.02;29.93;99605.41;4915114;29;20451;-76
2023/07/06 08:36:18;;;;;;;3.07;2.00;;;;;;;28.97;30.47;99605.22;4912421;29;20457;-76
2023/07/06 08:38:44;;;;;;;4.33;2.30;;;;;;;28.83;31.05;99605.31;4905878;29;20206;-76
2023/07/06 08:41:18;;;;;;;2.17;1.97;;;;;;;28.75;30.86;99604.72;4906895;29;20465;-76
2023/07/06 08:46:23;;;;;;;3.23;1.90;;;;;;;28.54;31.39;99608.56;4915204;29;20508;-77
2023/07/06 08:48:48;;;;;;;1.93;1.80;;;;;;;28.57;31.10;99611.69;4916629;29;20458;-80
2023/07/06 08:51:18;;;;;;;3.97;1.90;;;;;;;28.53;31.53;99612.31;4914383;29;20238;-81
2023/07/06 08:53:53;;;;;;;3.70;2.15;;;;;;;28.37;31.55;99605.50;4915581;29;20466;-78
2023/07/06 08:56:23;;;;;;;4.03;2.23;;;;;;;28.24;31.68;99595.56;4914868;29;20220;-79
2023/07/06 08:58:49;;;;;;;7.43;2.40;;;;;;;28.28;31.54;99599.50;4914130;29;20545;-80
2023/07/06 09:01:17;;;;;;;3.47;2.27;;;;;;;28.37;31.29;99606.31;4916259;29;20472;-77
2023/07/06 09:03:51;;;;;;;2.30;1.97;;;;;;;28.44;31.05;99601.75;4929406;29;20480;-78
2023/07/06 09:06:20;;;;;;;4.57;2.13;;;;;;;28.53;30.58;99601.53;4914356;29;20457;-78
2023/07/06 09:08:48;;;;;;;3.13;2.87;;;;;;;28.47;29.68;99600.50;4916104;29;20250;-78
2023/07/06 09:11:14;;;;;;;2.50;2.17;;;;;;;28.44;29.87;99596.34;4915655;29;20580;-77
2023/07/06 09:13:49;;;;;;;10.90;2.47;;;;;;;28.52;29.39;99603.41;4914199;29;20544;-81
2023/07/06 09:16:19;;;;;;;2.80;2.33;;;;;;;28.51;29.35;99593.63;4916433;29;20481;-77
2023/07/06 09:18:46;;;;;;;3.37;2.60;;;;;;;28.37;29.42;99603.63;4913155;29;20788;-79
2023/07/06 09:21:11;;;;;;;1.87;1.77;;;;;;;28.38;29.55;99604.44;4914819;29;21075;-78
2023/07/06 09:23:37;;;;;;;3.30;2.40;;;;;;;28.50;29.38;99599.25;4916583;29;21020;-79
2023/07/06 09:26:07;;;;;;;6.10;1.80;;;;;;;28.64;29.13;99590.03;4914966;29;20669;-79
2023/07/06 09:28:33;;;;;;;3.30;1.50;;;;;;;28.76;28.99;99593.72;4920201;29;20273;-79
2023/07/06 09:31:21;;;;;;;5.07;1.70;;;;;;;28.88;28.53;99586.56;4915425;29;20497;-78
2023/07/06 09:33:50;;;;;;;1.70;1.60;;;;;;;28.98;27.81;99590.69;4914828;29;20467;-79
2023/07/06 09:36:23;;;;;;;3.80;2.10;;;;;;;29.05;27.50;99586.06;4913141;29;20470;-80
2023/07/06 09:38:50;;;;;;;3.10;1.80;;;;;;;29.13;27.53;99584.97;4917810;29;20516;-79
2023/07/06 09:41:25;;;;;;;8.03;2.67;;;;;;;29.12;27.00;99586.84;4911100;29;20493;-78
2023/07/06 09:44:03;;;;;;;3.83;2.37;;;;;;;29.20;26.48;99592.00;4916135;29;20513;-79
2023/07/06 09:46:35;;;;;;;2.60;1.60;;;;;;;28.90;25.65;99584.47;4913891;29;20518;-80
2023/07/06 09:49:01;;;;;;;3.90;1.67;;;;;;;28.68;26.10;99581.28;4911417;29;20670;-79
2023/07/06 09:51:45;;;;;;;2.83;2.00;;;;;;;28.61;25.81;99579.66;4914228;29;20980;-79
2023/07/06 09:54:17;;;;;;;3.57;1.60;;;;;;;28.74;26.00;99574.19;4913323;29;20337;-81
2023/07/06 09:56:43;;;;;;;1.77;1.60;;;;;;;28.71;26.16;99584.59;4913051;29;20499;-79
2023/07/06 09:59:10;;;;;;;4.10;2.10;;;;;;;28.44;26.00;99585.56;4914199;28;20471;-79
2023/07/06 10:02:05;;;;;;;2.20;2.00;;;;;;;28.41;26.45;99580.56;4914930;29;20215;-78
2023/07/06 10:04:53;;;;;;;2.23;1.83;;;;;;;28.69;25.92;99576.69;4917447;29;20475;-78
2023/07/06 10:07:29;;;;;;;4.67;2.20;;;;;;;29.00;25.87;99578.59;4917369;28;20563;-77
2023/07/06 10:10:08;;;;;;;2.00;1.70;;;;;;;29.24;25.05;99574.25;4915802;29;20845;-78
2023/07/06 10:12:40;;;;;;;2.03;1.60;;;;;;;29.48;24.96;99582.63;4914233;29;20549;-78
2023/07/06 10:15:17;;;;;;;3.70;2.07;;;;;;;29.62;24.51;99576.03;4915188;29;20511;-78
2023/07/06 10:17:50;;;;;;;2.97;1.80;;;;;;;29.81;24.29;99578.78;4916075;29;20477;-80
2023/07/06 10:20:28;;;;;;;2.10;1.90;;;;;;;29.99;23.92;99579.63;4915161;29;20486;-78
2023/07/06 10:23:21;;;;;;;3.43;1.80;;;;;;;30.15;23.54;99572.78;4913350;29;20512;-78
2023/07/06 10:26:07;;;;;;;2.43;1.70;;;;;;;30.26;23.35;99581.25;4916178;29;20473;-78
2023/07/06 10:28:41;;;;;;;2.20;1.90;;;;;;;30.31;22.85;99584.13;4916715;29;20447;-78
2023/07/06 10:31:12;;;;;;;4.43;1.87;;;;;;;29.97;23.12;99568.22;4914763;29;20492;-81
2023/07/06 10:33:57;;;;;;;2.20;2.00;;;;;;;29.56;23.67;99574.22;4914573;29;20474;-79
2023/07/06 10:36:32;;;;;;;7.10;2.20;;;;;;;29.60;23.70;99578.16;4915163;29;20487;-79
2023/07/06 10:38:58;;;;;;;4.47;2.33;;;;;;;29.65;23.84;99575.63;4914237;29;21052;-79
2023/07/06 10:41:30;;;;;;;3.20;1.90;;;;;;;29.72;23.96;99581.78;4913771;29;20489;-78
2023/07/06 10:43:59;;;;;;;3.17;1.80;;;;;;;29.74;23.94;99574.28;4913232;29;21105;-78
2023/07/06 10:46:30;;;;;;;2.73;2.20;;;;;;;29.78;24.05;99575.47;4913813;29;20476;-81
2023/07/06 10:48:57;;;;;;;2.00;1.80;;;;;;;29.95;24.03;99569.50;4915365;29;21115;-78
2023/07/06 10:51:24;;;;;;;4.73;2.00;;;;;;;30.09;23.74;99564.75;4915662;29;20461;-79
2023/07/06 10:54:26;;;;;;;3.27;2.07;;;;;;;30.16;23.15;99571.75;4914651;29;20961;-78
2023/07/06 10:57:12;;;;;;;2.80;2.00;;;;;;;30.16;23.10;99571.75;4913358;29;20566;-78
2023/07/06 10:59:41;;;;;;;2.90;1.93;;;;;;;30.21;23.21;99571.06;4915450;29;20526;-80
2023/07/06 11:02:40;;;;;;;1.97;1.73;;;;;;;30.25;22.94;99569.59;4915078;29;20872;-79
2023/07/06 11:05:19;;;;;;;3.27;1.80;;;;;;;30.35;23.42;99567.19;4911033;29;20480;-78
2023/07/06 11:07:54;;;;;;;6.67;2.23;;;;;;;30.41;23.37;99566.25;4914170;29;20464;-80
2023/07/06 11:10:36;;;;;;;4.07;2.10;;;;;;;30.30;23.12;99566.19;4913125;29;20486;-77
2023/07/06 11:13:02;;;;;;;5.00;2.50;;;;;;;30.29;23.68;99575.38;4912855;29;20898;-78
2023/07/06 11:15:48;;;;;;;3.00;2.00;;;;;;;30.13;23.70;99572.19;4912712;29;20908;-80
2023/07/06 11:18:22;;;;;;;2.63;2.43;;;;;;;29.86;24.00;99566.22;4903805;28;20236;-82
2023/07/06 11:21:02;;;;;;;2.70;1.77;;;;;;;29.79;24.53;99570.91;4913327;29;20471;-79
2023/07/06 11:23:35;;;;;;;4.40;2.20;;;;;;;29.81;24.57;99570.66;4913684;29;20492;-78
2023/07/06 11:26:07;;;;;;;6.17;2.27;;;;;;;29.86;24.26;99570.81;4914174;29;20493;-81
2023/07/06 11:28:33;;;;;;;3.50;2.23;;;;;;;29.88;23.96;99569.56;4917921;29;20495;-78
2023/07/06 11:31:40;;;;;;;3.40;2.03;;;;;;;29.92;23.36;99575.34;4913863;29;20477;-77
2023/07/06 11:34:18;;;;;;;2.40;2.20;;;;;;;29.91;23.42;99570.97;4918950;29;20467;-80
2023/07/06 11:37:02;;;;;;;5.50;2.33;;;;;;;29.88;23.48;99568.72;4914140;29;20476;-80
2023/07/06 11:39:39;;;;;;;4.90;2.30;;;;;;;29.80;23.61;99563.59;4915731;29;20469;-80
2023/07/06 11:42:37;;;;;;;2.47;1.80;;;;;;;29.67;23.42;99564.56;4914947;29;20487;-78
2023/07/06 11:45:29;;;;;;;4.27;2.70;;;;;;;29.63;23.53;99566.88;4933475;28;20569;-80
2023/07/06 11:48:12;;;;;;;4.50;2.43;;;;;;;29.55;23.50;99561.75;4950513;28;20495;-82
2023/07/06 11:50:39;;;;;;;2.07;1.87;;;;;;;29.43;23.21;99563.50;4954150;28;20741;-82
2023/07/06 11:53:29;;;;;;;3.90;2.27;;;;;;;29.46;23.45;99555.78;4956210;28;20510;-78
2023/07/06 11:56:05;;;;;;;2.53;1.70;;;;;;;29.57;23.16;99554.22;4954931;28;20478;-79